Latest Weather Observations for Mount Buller

IDV60801

Issued at 5:35 pm EDT Monday 24 November 2014 (issued every 30 minutes, with the page automatically refreshed every 10 minutes)

About weather observations | Map of weather stations | Latest weather observations for VIC | Other Formats
Station Details ID: 083024 Name: MOUNT BULLER Lat: -37.15 Lon: 146.44 Height: 1707.0 m
Data from the previous 72 hours. | See also: Recent months at Mount Buller
Date/Time
EDT
Temp
°C
App
Temp
°C
Dew
Point
Rel
Hum
%
Delta-T
°C
Wind Press
QNH
hPa
Press
MSL
hPa
Rain
since 9 am
mm
Dir
 
Spd
km/h
Gust
km/h
Spd
kts
Gust
kts
24/05:30pm 9.4 3.2 8.0 91 0.7 NNW 30 57 16 31 - - 8.6
24/05:03pm 11.1 4.5 8.5 84 1.4 NNW 33 63 18 34 - - 8.6
24/05:02pm 10.9 5.2 8.5 85 1.3 NNW 28 44 15 24 - - 8.6
24/05:00pm 11.4 3.6 8.1 80 1.8 WNW 39 98 21 53 - - 8.6
24/04:54pm 10.0 1.9 9.9 99 0.1 WNW 43 95 23 51 - - 8.4
24/04:45pm 8.9 -0.9 8.8 99 0.1 W 50 72 27 39 - - 7.2
24/04:40pm 11.3 3.0 11.3 100 0.0 NW 46 85 25 46 - - 5.2
24/04:36pm 11.4 2.0 11.4 100 0.0 N 52 119 28 64 - - 1.6
24/04:30pm 11.6 3.4 11.6 100 0.0 N 46 72 25 39 - - 0.8
24/04:18pm 11.6 3.9 11.6 100 0.0 N 43 61 23 33 - - 0.0
24/04:00pm 11.5 3.6 11.3 99 0.1 NW 44 76 24 41 - - 0.0
24/03:57pm 11.5 3.7 11.3 99 0.1 NNW 43 56 23 30 - - 0.0
24/03:30pm 11.3 2.1 11.0 98 0.2 N 50 74 27 40 - - 0.0
24/03:04pm 11.4 3.2 10.5 94 0.5 N 44 67 24 36 - - 0.0
24/03:00pm 11.1 3.2 10.8 98 0.2 N 43 59 23 32 - - 0.0
24/02:30pm 11.3 3.4 10.8 97 0.3 N 43 61 23 33 - - 0.0
24/02:00pm 11.7 3.4 9.9 89 1.0 N 44 65 24 35 - - 0.0
24/01:31pm 12.2 3.7 9.2 82 1.7 N 44 65 24 35 - - 0.0
24/01:30pm 12.1 4.0 10.0 87 1.2 N 43 59 23 32 - - 0.0
24/01:13pm 12.4 4.9 9.4 82 1.7 N 39 59 21 32 - - 0.0
24/01:00pm 12.2 4.9 10.1 87 1.2 N 39 50 21 27 - - 0.0
24/12:30pm 12.7 5.4 10.1 84 1.5 N 39 57 21 31 - - 0.0
24/12:00pm 13.1 5.9 10.5 84 1.5 N 39 57 21 31 - - 0.0
24/11:32am 12.4 4.4 10.5 88 1.1 N 43 61 23 33 - - 0.0
24/11:30am 12.2 4.3 10.8 91 0.8 N 43 56 23 30 - - 0.0
24/11:00am 11.9 2.6 10.5 91 0.8 N 50 70 27 38 - - 0.0
24/10:30am 11.5 2.9 10.2 92 0.7 N 46 67 25 36 - - 0.0
24/10:00am 11.4 2.3 10.0 91 0.8 N 48 72 26 39 - - 0.0
24/09:30am 12.0 3.2 9.7 86 1.3 N 46 65 25 35 - - 0.0
24/09:00am 12.2 2.1 8.9 80 1.8 N 52 74 28 40 - - 0.0
24/08:30am 12.8 1.6 7.7 71 2.7 N 56 80 30 43 - - -
24/08:19am 13.1 0.4 6.9 66 3.3 N 63 85 34 46 - - -
24/08:17am 13.3 0.3 7.1 66 3.3 N 65 80 35 43 - - -
24/08:01am 13.8 4.7 6.7 62 3.8 N 44 63 24 34 - - -
24/08:00am 13.7 4.6 6.6 62 3.8 N 44 59 24 32 - - -
24/07:30am 13.8 2.6 5.7 58 4.2 N 54 80 29 43 - - -
24/07:00am 13.6 2.7 5.5 58 4.2 N 52 72 28 39 - - -
24/06:30am 13.9 4.2 5.8 58 4.2 N 46 69 25 37 - - -
24/06:06am 13.6 4.5 6.0 60 4.0 N 43 61 23 33 - - -
24/06:00am 13.6 4.5 6.0 60 4.0 N 43 59 23 32 - - -
24/05:45am 13.3 4.7 6.4 63 3.6 N 41 59 22 32 - - -
24/05:30am 13.3 5.0 6.2 62 3.7 N 39 50 21 27 - - -
24/05:00am 12.8 4.8 5.7 62 3.7 N 37 50 20 27 - - -
24/04:30am 11.8 4.6 5.9 67 3.0 N 33 41 18 22 - - -
24/04:00am 12.3 5.2 5.5 63 3.5 N 32 41 17 22 - - -
24/03:36am 12.6 4.8 4.8 59 4.0 N 35 54 19 29 - - -
24/03:30am 12.3 5.2 5.5 63 3.5 N 32 43 17 23 - - -
24/03:00am 11.9 5.9 7.0 72 2.6 N 28 41 15 22 - - 0.0
24/02:30am 12.8 6.4 5.0 59 4.0 N 28 35 15 19 - - -
24/02:00am 13.3 7.5 4.2 54 4.6 N 24 37 13 20 - - -
24/01:30am 13.2 7.5 4.9 57 4.2 N 24 32 13 17 - - -
24/01:00am 12.6 8.5 6.2 65 3.3 NNW 17 24 9 13 - - -
24/12:30am 13.0 8.3 5.9 62 3.7 NNW 20 32 11 17 - - -
24/12:00am 14.8 10.3 2.4 43 6.1 WNW 15 28 8 15 - - -
 
Date/Time
EDT
Temp
°C
App
Temp
°C
Dew
Point
Rel
Hum
%
Delta-T
°C
Wind Press
QNH
hPa
Press
MSL
hPa
Rain
since 9 am
mm
Dir
 
Spd
km/h
Gust
km/h
Spd
kts
Gust
kts
23/11:30pm 15.1 10.5 1.3 39 6.6 WNW 15 33 8 18 - - -
23/11:00pm 15.7 11.1 1.8 39 6.8 WNW 15 28 8 15 - - -
23/10:30pm 13.8 10.5 6.4 61 3.9 NW 13 19 7 10 - - -
23/10:00pm 13.9 10.2 6.5 61 3.9 NNW 15 24 8 13 - - -
23/09:30pm 14.3 10.0 6.9 61 4.0 NNW 19 33 10 18 - - -
23/09:00pm 14.3 9.9 7.4 63 3.7 N 20 35 11 19 - - 0.0
23/08:30pm 14.2 10.4 7.7 65 3.5 NNW 17 32 9 17 - - -
23/08:00pm 14.1 12.5 7.9 66 3.4 NNW 6 13 3 7 - - -
23/07:30pm 14.6 11.8 8.5 67 3.4 NNW 13 26 7 14 - - -
23/07:00pm 15.0 12.5 9.6 70 3.1 N 13 28 7 15 - - -
23/06:30pm 15.3 11.7 9.7 69 3.2 N 19 35 10 19 - - -
23/06:00pm 15.9 13.3 9.3 65 3.7 NNW 13 32 7 17 - - -
23/05:30pm 16.9 13.6 9.6 62 4.2 N 17 35 9 19 - - -
23/05:07pm 16.9 11.8 10.5 66 3.7 NNW 28 48 15 26 - - -
23/05:00pm 16.9 11.3 10.1 64 3.9 N 30 43 16 23 - - -
23/04:30pm 17.4 11.9 10.5 64 4.0 NNW 30 46 16 25 - - -
23/04:09pm 17.1 11.3 10.9 67 3.6 NNW 32 50 17 27 - - -
23/04:00pm 17.2 11.7 10.6 65 3.8 N 30 46 16 25 - - -
23/03:36pm 17.5 12.5 11.1 66 3.8 N 28 46 15 25 - - -
23/03:30pm 17.8 13.3 11.4 66 3.8 N 26 41 14 22 - - -
23/03:00pm 17.5 13.8 11.5 68 3.6 N 22 35 12 19 - - -
23/02:30pm 17.7 14.6 11.7 68 3.6 NNW 19 30 10 16 - - -
23/02:00pm 18.7 14.9 12.5 67 3.8 NNW 24 44 13 24 - - -
23/01:30pm 18.0 14.0 10.4 61 4.4 NNW 22 35 12 19 - - 0.0
23/01:00pm 16.9 12.9 10.5 66 3.7 NNW 22 37 12 20 - - 0.0
23/12:30pm 16.2 13.1 10.3 68 3.4 N 17 32 9 17 - - 0.0
23/12:00pm 16.0 13.0 10.7 71 3.1 N 17 32 9 17 - - 0.0
23/11:30am 15.5 12.1 10.5 72 2.9 NNW 19 32 10 17 - - 0.0
23/11:00am 15.2 11.8 9.3 68 3.3 NNW 17 28 9 15 - - 0.0
23/10:30am 14.8 11.5 9.4 70 3.0 NNW 17 32 9 17 - - 0.0
23/10:00am 14.7 11.2 8.9 68 3.2 NW 17 43 9 23 - - 0.0
23/09:30am 14.3 10.3 9.1 71 2.9 NNW 20 39 11 21 - - 0.0
23/09:00am 14.0 9.9 8.6 70 3.0 NNW 20 33 11 18 - - 6.2
23/08:30am 13.8 9.8 9.0 73 2.7 N 20 43 11 23 - - 6.2
23/08:00am 13.3 9.9 9.2 76 2.3 NNW 17 32 9 17 - - 6.2
23/07:30am 12.6 7.3 8.3 75 2.3 NNW 26 48 14 26 - - 6.2
23/07:05am 12.6 6.9 8.5 76 2.2 NW 28 48 15 26 - - 6.2
23/07:00am 12.4 7.5 8.3 76 2.2 NW 24 48 13 26 - - 6.2
23/06:30am 11.5 5.9 8.7 83 1.5 NW 28 46 15 25 - - 6.2
23/06:00am 11.1 4.8 8.8 86 1.3 NW 32 54 17 29 - - 6.2
23/05:55am 11.3 5.7 8.9 85 1.3 NW 28 54 15 29 - - 6.2
23/05:30am 10.7 6.0 9.1 90 0.9 NW 24 50 13 27 - - 6.2
23/05:18am 11.0 5.4 8.9 87 1.1 NW 28 50 15 27 - - 6.0
23/05:00am 10.8 7.0 8.9 88 1.0 NNW 19 37 10 20 - - 6.0
23/04:30am 12.3 5.5 7.8 74 2.4 NW 33 61 18 33 - - 6.0
23/04:27am 12.2 6.4 8.1 76 2.2 NW 28 56 15 30 - - 6.0
23/04:00am 12.2 6.9 8.3 77 2.1 WNW 26 56 14 30 - - 6.0
23/03:30am 12.4 6.5 8.9 79 1.9 W 30 50 16 27 - - 6.0
23/03:00am 12.3 4.8 9.3 82 1.7 WNW 39 65 21 35 - - 6.0
23/02:30am 11.6 5.5 9.9 89 0.9 W 32 50 17 27 - - 6.0
23/02:00am 11.1 5.1 10.0 93 0.6 W 32 46 17 25 - - 6.0
23/01:30am 10.2 3.8 9.4 95 0.4 W 33 56 18 30 - - 5.4
23/01:09am 10.8 4.7 8.4 85 1.3 W 30 48 16 26 - - 3.6
23/01:00am 11.2 4.7 8.2 82 1.6 W 32 46 17 25 - - 3.6
23/12:30am 10.4 3.5 8.7 89 0.9 W 35 59 19 32 - - 3.6
23/12:26am 10.7 3.7 8.3 85 1.3 W 35 59 19 32 - - 3.4
23/12:21am 11.3 4.5 7.8 79 1.9 W 33 50 18 27 - - 3.2
23/12:00am 10.0 8.2 9.5 97 0.3 NW 9 28 5 15 - - 3.2
 
Date/Time
EDT
Temp
°C
App
Temp
°C
Dew
Point
Rel
Hum
%
Delta-T
°C
Wind Press
QNH
hPa
Press
MSL
hPa
Rain
since 9 am
mm
Dir
 
Spd
km/h
Gust
km/h
Spd
kts
Gust
kts
22/11:30pm 10.2 6.0 9.7 97 0.3 NNW 22 41 12 22 - - 2.0
22/11:19pm 10.3 4.0 9.8 97 0.3 NW 33 59 18 32 - - 1.4
22/11:00pm 10.6 3.1 9.4 92 0.7 N 39 61 21 33 - - 0.4
22/10:45pm 11.4 2.4 8.8 84 1.4 N 46 67 25 36 - - 0.0
22/10:30pm 11.5 2.8 8.4 81 1.7 NNW 44 56 24 30 - - 0.0
22/10:00pm 11.9 1.9 8.0 77 2.1 NNW 50 70 27 38 - - 0.0
22/09:30pm 12.0 1.8 7.1 72 2.6 N 50 70 27 38 - - 0.0
22/09:00pm 13.6 2.9 4.7 55 4.5 NNW 50 72 27 39 - - 0.0
22/08:30pm 14.2 2.4 2.8 46 5.6 N 54 80 29 43 - - 0.0
22/08:00pm 14.4 3.3 2.6 45 5.8 NNW 50 72 27 39 - - 0.0
22/07:35pm 14.4 4.6 2.3 44 5.9 N 43 63 23 34 - - 0.0
22/07:30pm 14.2 3.9 2.8 46 5.6 N 46 61 25 33 - - 0.0
22/07:05pm 14.6 3.9 2.5 44 5.9 N 48 70 26 38 - - 0.0
22/07:00pm 14.3 4.0 2.5 45 5.8 N 46 57 25 31 - - 0.0
22/06:30pm 14.2 4.5 3.1 47 5.5 N 43 65 23 35 - - 0.0
22/06:04pm 13.8 5.7 3.0 48 5.3 N 35 54 19 29 - - 0.0
22/06:00pm 13.7 6.3 3.8 51 4.9 N 32 44 17 24 - - 0.0
22/05:30pm 13.7 6.1 3.8 51 4.9 N 33 46 18 25 - - 0.0
22/05:00pm 14.1 6.2 4.1 51 5.0 N 35 46 19 25 - - 0.0
22/04:43pm 13.9 5.9 3.9 51 5.0 N 35 54 19 29 - - 0.0
22/04:30pm 14.2 6.3 4.5 52 4.9 N 35 44 19 24 - - 0.0
22/04:00pm 14.1 7.0 5.5 56 4.5 N 32 41 17 22 - - 0.0
22/03:30pm 15.5 8.8 5.4 51 5.3 N 30 41 16 22 - - 0.0
22/03:00pm 14.2 6.9 4.5 52 4.9 N 32 39 17 21 - - 0.0
22/02:30pm 12.0 5.9 5.0 62 3.5 N 26 32 14 17 - - 0.0
22/02:00pm 12.4 6.4 3.1 53 4.5 N 24 44 13 24 - - 0.0
22/01:30pm 13.0 7.6 4.7 57 4.2 N 22 33 12 18 - - 0.0
22/01:00pm 13.1 8.1 3.7 53 4.7 N 19 37 10 20 - - 0.0
22/12:30pm 13.3 9.1 3.9 53 4.7 NNW 15 30 8 16 - - 0.0
22/12:00pm 14.7 9.8 5.2 53 4.9 NNW 20 32 11 17 - - 0.0
22/11:30am 14.8 10.2 3.6 47 5.6 NNW 17 28 9 15 - - 0.0
22/11:00am 14.1 8.5 1.4 42 6.1 NNW 20 30 11 16 - - 0.0
22/10:30am 13.3 7.5 -1.8 35 6.7 N 19 26 10 14 - - 0.0
22/10:00am 14.0 7.9 -2.0 33 7.1 NNW 20 30 11 16 - - 0.0
22/09:30am 13.1 6.9 -2.8 33 6.9 N 20 26 11 14 - - 0.0
22/09:00am 12.1 5.9 -2.9 35 6.4 N 20 28 11 15 - - 0.0
22/08:30am 11.5 4.8 -1.3 41 5.6 N 24 33 13 18 - - 0.0
22/08:00am 10.3 3.3 -0.2 48 4.7 NNW 26 33 14 18 - - 0.0
22/07:30am 9.9 2.6 0.0 50 4.4 NNW 28 35 15 19 - - 0.0
22/07:00am 9.3 1.2 -0.6 50 4.3 NNW 32 37 17 20 - - 0.0
22/06:30am 9.1 1.4 0.0 53 4.0 NNW 30 35 16 19 - - 0.0
22/06:00am 9.1 1.9 1.0 57 3.7 NNW 28 33 15 18 - - 0.0
22/05:30am 9.3 1.5 1.5 58 3.6 NNW 32 37 17 20 - - 0.0
22/05:00am 8.9 1.5 2.0 62 3.2 NNW 30 37 16 20 - - 0.0
22/04:30am 9.0 1.3 2.3 63 3.1 NNW 32 35 17 19 - - 0.0
22/04:00am 8.7 1.0 2.1 63 3.1 NNW 32 39 17 21 - - 0.0
22/03:30am 9.0 1.0 1.9 61 3.3 NNW 33 37 18 20 - - 0.0
22/03:00am 8.6 2.1 0.6 57 3.6 NNW 24 30 13 16 - - 0.0
22/02:30am 9.1 2.5 -0.2 52 4.1 NNW 24 30 13 16 - - 0.0
22/02:00am 9.2 2.3 -0.1 52 4.1 NNW 26 32 14 17 - - 0.0
22/01:30am 9.3 3.0 1.5 58 3.6 NNW 24 30 13 16 - - 0.0
22/01:00am 9.1 3.3 2.4 63 3.1 NNW 22 28 12 15 - - 0.0
22/12:30am 9.3 2.6 3.5 67 2.8 NNW 28 35 15 19 - - 0.0
22/12:00am 9.1 3.1 3.1 66 2.9 NNW 24 32 13 17 - - 0.0
 
Date/Time
EDT
Temp
°C
App
Temp
°C
Dew
Point
Rel
Hum
%
Delta-T
°C
Wind Press
QNH
hPa
Press
MSL
hPa
Rain
since 9 am
mm
Dir
 
Spd
km/h
Gust
km/h
Spd
kts
Gust
kts
21/11:30pm 9.1 3.4 3.1 66 2.9 NNW 22 28 12 15 - - 0.0
21/11:00pm 8.8 3.9 2.2 63 3.1 NNW 17 20 9 11 - - 0.0
21/10:30pm 9.5 4.6 2.1 60 3.5 NNW 17 24 9 13 - - 0.0
21/10:00pm 8.9 4.9 0.6 56 3.7 NW 11 13 6 7 - - 0.0
21/09:30pm 9.6 5.7 -1.7 45 4.8 NW 9 11 5 6 - - 0.0
21/09:00pm 8.9 3.8 -2.1 46 4.6 WNW 15 17 8 9 - - 0.0
21/08:30pm 8.6 3.3 -3.6 42 5.0 W 15 19 8 10 - - 0.0
21/08:00pm 9.2 4.3 -3.3 41 5.1 WNW 13 19 7 10 - - 0.0
21/07:30pm 10.3 6.7 0.9 52 4.3 WNW 9 11 5 6 - - 0.0
21/07:00pm 11.2 7.8 1.7 52 4.5 NNW 9 15 5 8 - - 0.0
21/06:30pm 12.9 10.1 3.0 51 4.8 WNW 7 20 4 11 - - 0.0
21/06:00pm 12.8 9.9 2.4 49 5.0 NW 7 13 4 7 - - 0.0

Other Formats:

Comma delimited format used in spreadsheet applications
http://www.bom.gov.au/fwo/IDV60801/IDV60801.94894.axf

JavaScript Object Notation format (JSON) in row-major order
http://www.bom.gov.au/fwo/IDV60801/IDV60801.94894.json